createdAt,value
2018-11-04T00:04:39.790Z,22.43
2018-11-04T00:09:47.260Z,21.60
2018-11-04T00:14:49.773Z,23.33
2018-11-04T00:19:51.954Z,24.40
2018-11-04T00:30:44.871Z,27.03
2018-11-04T00:35:49.273Z,27.60
2018-11-04T00:40:54.528Z,27.23
2018-11-04T00:46:00.979Z,27.60
2018-11-04T00:51:06.241Z,25.33
2018-11-04T01:01:26.722Z,28.90
2018-11-04T01:06:32.570Z,28.47
2018-11-04T01:11:35.015Z,29.10
2018-11-04T01:16:37.265Z,26.32
2018-11-04T01:21:47.808Z,30.87
2018-11-04T01:26:54.824Z,34.67
2018-11-04T01:31:57.500Z,30.67
2018-11-04T01:37:02.979Z,32.53
2018-11-04T01:47:15.913Z,42.97
2018-11-04T01:52:20.200Z,36.80
2018-11-04T01:57:22.785Z,36.50
2018-11-04T02:02:27.460Z,32.10
2018-11-04T02:12:40.740Z,27.53
2018-11-04T02:17:42.930Z,29.73
2018-11-04T02:22:45.601Z,30.53
2018-11-04T02:27:49.334Z,29.80
2018-11-04T02:32:51.348Z,29.82
2018-11-04T02:37:55.679Z,32.90
2018-11-04T02:42:57.899Z,31.90
2018-11-04T02:48:06.726Z,33.10
2018-11-04T02:53:11.436Z,34.70
2018-11-04T02:58:16.284Z,28.20
2018-11-04T03:03:21.216Z,33.73
2018-11-04T03:08:24.882Z,38.20
2018-11-04T03:13:27.487Z,40.40
2018-11-04T03:18:29.797Z,43.17
2018-11-04T03:23:32.989Z,37.07
2018-11-04T03:28:36.736Z,41.57
2018-11-04T03:33:39.232Z,35.27
2018-11-04T03:38:45.042Z,31.77
2018-11-04T03:43:51.270Z,34.80
2018-11-04T03:48:53.991Z,37.77
2018-11-04T03:53:56.035Z,40.10
2018-11-04T03:59:00.934Z,41.30
2018-11-04T04:04:02.529Z,40.50
2018-11-04T04:09:05.707Z,41.57
2018-11-04T04:14:09.898Z,42.80
2018-11-04T04:19:14.784Z,39.57
2018-11-04T04:24:20.991Z,42.53
2018-11-04T04:29:23.501Z,41.40
2018-11-04T04:34:25.994Z,40.10
2018-11-04T04:39:29.342Z,38.67
2018-11-04T04:44:35.003Z,36.17
2018-11-04T04:49:37.561Z,40.67
2018-11-04T04:54:46.106Z,36.60
2018-11-04T04:59:48.112Z,38.07
2018-11-04T05:04:52.327Z,31.17
2018-11-04T05:09:55.386Z,32.30
2018-11-04T05:20:12.101Z,34.30
2018-11-04T05:25:18.940Z,32.73
2018-11-04T05:30:22.147Z,30.43
2018-11-04T05:35:27.028Z,31.90
2018-11-04T05:40:33.478Z,34.77
2018-11-04T05:45:39.174Z,37.93
2018-11-04T05:50:40.781Z,41.83
2018-11-04T05:55:45.439Z,40.33
2018-11-04T06:00:48.871Z,47.87
2018-11-04T06:11:06.863Z,41.63
2018-11-04T06:16:09.423Z,41.83
2018-11-04T06:21:11.567Z,39.03
2018-11-04T06:26:13.353Z,33.00
2018-11-04T06:31:18.252Z,31.93
2018-11-04T06:36:21.138Z,33.23
2018-11-04T06:41:25.851Z,34.83
2018-11-04T06:46:30.383Z,31.83
2018-11-04T06:51:33.791Z,32.23
2018-11-04T06:56:36.306Z,31.93
2018-11-04T07:01:38.960Z,37.00
2018-11-04T07:06:42.992Z,34.83
2018-11-04T07:11:46.254Z,31.27
2018-11-04T07:16:48.409Z,32.83
2018-11-04T07:21:51.336Z,34.03
2018-11-04T07:26:54.996Z,37.43
2018-11-04T07:31:58.197Z,38.30
2018-11-04T07:37:02.567Z,35.63
2018-11-04T07:47:10.420Z,40.70
2018-11-04T07:52:14.148Z,33.93
2018-11-04T07:57:16.488Z,39.47
2018-11-04T08:02:26.682Z,32.90
2018-11-04T08:07:30.981Z,34.53
2018-11-04T08:12:33.464Z,34.87
2018-11-04T08:17:35.860Z,31.17
2018-11-04T08:22:39.205Z,35.05
2018-11-04T08:27:46.504Z,33.07
2018-11-04T08:32:50.958Z,29.87
2018-11-04T08:37:56.292Z,34.87
2018-11-04T08:43:00.524Z,30.83
2018-11-04T08:48:03.626Z,32.90
2018-11-04T08:53:10.221Z,30.43
2018-11-04T08:58:13.662Z,30.00
2018-11-04T09:03:15.837Z,30.50
2018-11-04T09:08:18.214Z,30.13
2018-11-04T09:13:23.406Z,36.23
2018-11-04T09:18:25.093Z,40.60
2018-11-04T09:23:27.738Z,38.00
2018-11-04T09:28:29.095Z,44.00
2018-11-04T09:33:30.920Z,38.07
2018-11-04T09:38:32.334Z,38.53
2018-11-04T09:43:35.528Z,36.95
2018-11-04T09:48:37.453Z,33.00
2018-11-04T09:53:44.343Z,30.23
2018-11-04T09:58:48.217Z,37.03
2018-11-04T10:03:54.670Z,30.65
2018-11-04T10:08:57.369Z,95.00
2018-11-04T10:13:58.935Z,35.23
2018-11-04T10:19:01.101Z,37.83
2018-11-04T10:24:02.407Z,38.80
2018-11-04T10:29:04.465Z,37.70
2018-11-04T10:34:05.948Z,36.20
2018-11-04T10:39:11.677Z,29.43
2018-11-04T10:44:14.594Z,36.33
2018-11-04T10:49:16.449Z,32.53
2018-11-04T10:54:19.213Z,33.17
2018-11-04T10:59:26.289Z,31.73
2018-11-04T11:04:29.903Z,33.53
2018-11-04T11:09:34.390Z,37.17
2018-11-04T11:14:37.413Z,27.53
2018-11-04T11:19:39.240Z,29.80
2018-11-04T11:24:43.109Z,27.27
2018-11-04T11:29:45.940Z,29.77
2018-11-04T11:34:47.847Z,34.60
2018-11-04T11:39:50.095Z,31.97
2018-11-04T11:44:51.937Z,33.33
2018-11-04T11:49:54.342Z,28.60
2018-11-04T11:54:57.556Z,30.73
2018-11-04T11:59:59.255Z,31.83
2018-11-04T12:05:00.461Z,31.57
2018-11-04T12:10:04.276Z,40.12
2018-11-04T12:15:11.036Z,33.33
2018-11-04T12:20:13.315Z,34.53
2018-11-04T12:25:15.482Z,39.90
2018-11-04T12:30:19.808Z,41.47
2018-11-04T12:35:22.388Z,40.70
2018-11-04T12:40:24.978Z,39.07
2018-11-04T12:45:26.077Z,41.00
2018-11-04T12:50:31.017Z,40.50
2018-11-04T12:55:32.131Z,41.10
2018-11-04T13:00:33.626Z,38.23
2018-11-04T13:05:35.119Z,38.85
2018-11-04T13:10:36.559Z,31.13
2018-11-04T13:15:38.057Z,32.23
2018-11-04T13:20:39.189Z,36.43
2018-11-04T13:25:41.257Z,32.50
2018-11-04T13:37:00.068Z,36.93
2018-11-04T13:42:01.778Z,36.17
2018-11-04T13:47:03.756Z,36.37
2018-11-04T13:52:06.985Z,34.47
2018-11-04T13:57:08.858Z,35.47
2018-11-04T14:02:09.767Z,35.70
2018-11-04T14:07:12.235Z,39.53
2018-11-04T14:12:14.733Z,34.13
2018-11-04T14:22:28.411Z,32.47
2018-11-04T14:27:29.942Z,27.40
2018-11-04T14:32:33.033Z,20.83
2018-11-04T14:37:37.610Z,18.33
2018-11-04T14:42:39.053Z,15.33
2018-11-04T14:52:59.072Z,12.87
2018-11-04T14:58:01.221Z,13.87
2018-11-04T15:03:03.713Z,14.10
2018-11-04T15:08:06.597Z,12.57
2018-11-04T15:13:09.142Z,12.90
2018-11-04T15:18:15.791Z,14.97
2018-11-04T15:23:16.752Z,13.80
2018-11-04T15:28:18.206Z,14.83
2018-11-04T15:33:19.665Z,13.73
2018-11-04T15:38:20.715Z,14.47
2018-11-04T15:43:21.578Z,13.43
2018-11-04T15:48:22.945Z,12.60
2018-11-04T15:53:24.301Z,16.07
2018-11-04T15:58:25.646Z,23.03
2018-11-04T16:03:26.990Z,19.67
2018-11-04T16:08:28.442Z,18.60
2018-11-04T16:13:29.865Z,19.70
2018-11-04T16:18:31.284Z,17.20
2018-11-04T16:23:32.710Z,15.27
2018-11-04T16:28:34.082Z,17.10
2018-11-04T16:33:35.437Z,23.27
2018-11-04T16:38:36.810Z,30.20
2018-11-04T16:43:38.200Z,43.00
2018-11-04T16:48:39.538Z,35.20
2018-11-04T16:53:40.489Z,31.30
2018-11-04T16:58:41.855Z,19.83
2018-11-04T17:03:43.223Z,15.30
2018-11-04T17:08:44.582Z,18.60
2018-11-04T17:13:45.966Z,14.77
2018-11-04T17:18:47.323Z,17.20
2018-11-04T17:23:48.686Z,20.60
2018-11-04T17:28:50.074Z,15.73
2018-11-04T17:33:51.516Z,15.83
2018-11-04T17:38:52.935Z,22.27
2018-11-04T17:43:54.394Z,18.43
2018-11-04T17:48:55.842Z,17.37
2018-11-04T17:53:57.293Z,18.77
2018-11-04T17:58:58.674Z,18.20
2018-11-04T18:04:00.140Z,17.07
2018-11-04T18:09:01.592Z,18.60
2018-11-04T18:14:02.951Z,17.13
2018-11-04T18:19:04.334Z,15.77
2018-11-04T18:24:05.278Z,21.57
2018-11-04T18:29:06.695Z,21.97
2018-11-04T18:34:08.110Z,17.93
2018-11-04T18:39:09.490Z,13.90
2018-11-04T18:44:10.959Z,16.20
2018-11-04T18:49:12.460Z,14.90
2018-11-04T18:54:13.897Z,14.50
2018-11-04T18:59:15.482Z,18.50
2018-11-04T19:04:16.831Z,31.10
2018-11-04T19:09:18.193Z,21.13
2018-11-04T19:14:19.558Z,18.73
2018-11-04T19:19:20.513Z,15.37
2018-11-04T19:24:21.873Z,24.43
2018-11-04T19:29:23.281Z,19.73
2018-11-04T19:34:24.741Z,27.27
2018-11-04T19:39:26.173Z,27.97
2018-11-04T19:44:27.555Z,17.33
2018-11-04T19:49:28.923Z,17.97
2018-11-04T19:54:30.383Z,17.27
2018-11-04T19:59:31.747Z,16.07
2018-11-04T20:04:33.208Z,13.60
2018-11-04T20:09:34.585Z,15.77
2018-11-04T20:14:35.959Z,12.57
2018-11-04T20:19:37.578Z,16.53
2018-11-04T20:24:38.065Z,16.27
2018-11-04T20:29:38.715Z,17.47
2018-11-04T20:34:39.359Z,18.60
2018-11-04T20:39:40.017Z,20.50
2018-11-04T20:44:40.707Z,19.80
2018-11-04T20:49:41.306Z,17.53
2018-11-04T20:54:41.962Z,17.27
2018-11-04T20:59:42.616Z,18.23
2018-11-04T21:04:43.266Z,20.83
2018-11-04T21:09:43.945Z,16.20
2018-11-04T21:14:44.566Z,18.30
2018-11-04T21:19:45.202Z,16.67
2018-11-04T21:24:45.856Z,19.53
2018-11-04T21:29:46.891Z,18.00
2018-11-04T21:34:47.173Z,17.10
2018-11-04T21:44:54.791Z,17.30
2018-11-04T21:49:55.449Z,15.47
2018-11-04T21:54:56.106Z,18.90
2018-11-04T21:59:56.744Z,19.77
2018-11-04T22:04:58.421Z,16.43
2018-11-04T22:10:00.106Z,17.30
2018-11-04T22:15:00.741Z,18.50
2018-11-04T22:20:01.397Z,16.60
2018-11-04T22:25:02.045Z,16.97
2018-11-04T22:30:02.685Z,18.50
2018-11-04T22:35:03.334Z,17.40
2018-11-04T22:40:03.995Z,18.23
2018-11-04T22:45:04.637Z,14.80
2018-11-04T22:50:05.277Z,16.43
2018-11-04T22:55:05.939Z,17.73
2018-11-04T23:00:06.603Z,16.17
2018-11-04T23:05:07.230Z,17.37
2018-11-04T23:10:07.900Z,17.23
2018-11-04T23:15:08.528Z,17.43
2018-11-04T23:20:09.181Z,17.73
2018-11-04T23:25:09.749Z,18.60
2018-11-04T23:30:10.382Z,16.70
2018-11-04T23:35:11.044Z,17.53
2018-11-04T23:40:11.787Z,15.73
2018-11-04T23:45:12.434Z,17.23
2018-11-04T23:50:13.080Z,17.07
2018-11-04T23:55:13.723Z,16.57
